sensor_id;sensor_type;location;lat;lon;timestamp;P1;durP1;ratioP1;P2;durP2;ratioP2
22673;SDS011;11504;43.334;21.918;2022-08-24T00:01:43;24.0;;;23.0;;
22673;SDS011;11504;43.334;21.918;2022-08-24T00:06:21;25.0;;;24.0;;
22673;SDS011;11504;43.334;21.918;2022-08-24T00:11:04;25.0;;;24.0;;
22673;SDS011;11504;43.334;21.918;2022-08-24T00:15:43;26.0;;;24.0;;
22673;SDS011;11504;43.334;21.918;2022-08-24T00:20:24;26.0;;;24.0;;
22673;SDS011;11504;43.334;21.918;2022-08-24T00:25:04;24.0;;;22.0;;
22673;SDS011;11504;43.334;21.918;2022-08-24T00:29:48;24.0;;;22.0;;
22673;SDS011;11504;43.334;21.918;2022-08-24T00:34:25;22.0;;;21.0;;
22673;SDS011;11504;43.334;21.918;2022-08-24T00:39:03;22.0;;;21.0;;
22673;SDS011;11504;43.334;21.918;2022-08-24T00:43:52;22.0;;;21.0;;
22673;SDS011;11504;43.334;21.918;2022-08-24T00:48:41;22.0;;;21.0;;
22673;SDS011;11504;43.334;21.918;2022-08-24T00:53:40;22.0;;;21.0;;
22673;SDS011;11504;43.334;21.918;2022-08-24T00:58:35;22.0;;;21.0;;
22673;SDS011;11504;43.334;21.918;2022-08-24T01:03:26;22.0;;;21.0;;
22673;SDS011;11504;43.334;21.918;2022-08-24T01:08:09;24.0;;;22.0;;
22673;SDS011;11504;43.334;21.918;2022-08-24T01:12:51;24.0;;;22.0;;
22673;SDS011;11504;43.334;21.918;2022-08-24T01:17:48;25.0;;;24.0;;
22673;SDS011;11504;43.334;21.918;2022-08-24T01:22:43;25.0;;;24.0;;
22673;SDS011;11504;43.334;21.918;2022-08-24T01:28:14;24.0;;;22.0;;
22673;SDS011;11504;43.334;21.918;2022-08-24T01:33:00;24.0;;;22.0;;
22673;SDS011;11504;43.334;21.918;2022-08-24T01:38:06;22.0;;;21.0;;
22673;SDS011;11504;43.334;21.918;2022-08-24T01:42:48;22.0;;;21.0;;
22673;SDS011;11504;43.334;21.918;2022-08-24T01:47:29;22.0;;;20.0;;
22673;SDS011;11504;43.334;21.918;2022-08-24T01:52:12;22.0;;;20.0;;
22673;SDS011;11504;43.334;21.918;2022-08-24T01:57:02;21.0;;;20.0;;
22673;SDS011;11504;43.334;21.918;2022-08-24T02:01:50;21.0;;;20.0;;
22673;SDS011;11504;43.334;21.918;2022-08-24T02:06:52;21.0;;;20.0;;
22673;SDS011;11504;43.334;21.918;2022-08-24T02:11:29;21.0;;;20.0;;
22673;SDS011;11504;43.334;21.918;2022-08-24T02:16:10;21.0;;;20.0;;
22673;SDS011;11504;43.334;21.918;2022-08-24T02:20:47;21.0;;;20.0;;
22673;SDS011;11504;43.334;21.918;2022-08-24T02:25:24;22.0;;;21.0;;
22673;SDS011;11504;43.334;21.918;2022-08-24T02:30:04;22.0;;;21.0;;
22673;SDS011;11504;43.334;21.918;2022-08-24T02:34:44;24.0;;;22.0;;
22673;SDS011;11504;43.334;21.918;2022-08-24T02:39:21;24.0;;;22.0;;
22673;SDS011;11504;43.334;21.918;2022-08-24T02:43:58;24.0;;;22.0;;
22673;SDS011;11504;43.334;21.918;2022-08-24T02:48:36;24.0;;;22.0;;
22673;SDS011;11504;43.334;21.918;2022-08-24T02:53:15;24.0;;;22.0;;
22673;SDS011;11504;43.334;21.918;2022-08-24T02:57:58;24.0;;;22.0;;
22673;SDS011;11504;43.334;21.918;2022-08-24T03:02:34;24.0;;;22.0;;
22673;SDS011;11504;43.334;21.918;2022-08-24T03:07:11;24.0;;;22.0;;
22673;SDS011;11504;43.334;21.918;2022-08-24T03:11:49;24.0;;;22.0;;
22673;SDS011;11504;43.334;21.918;2022-08-24T03:16:26;23.0;;;21.0;;
22673;SDS011;11504;43.334;21.918;2022-08-24T03:21:07;23.0;;;21.0;;
22673;SDS011;11504;43.334;21.918;2022-08-24T03:25:44;23.0;;;21.0;;
22673;SDS011;11504;43.334;21.918;2022-08-24T03:30:21;23.0;;;21.0;;
22673;SDS011;11504;43.334;21.918;2022-08-24T03:35:00;23.0;;;21.0;;
22673;SDS011;11504;43.334;21.918;2022-08-24T03:39:37;23.0;;;21.0;;
22673;SDS011;11504;43.334;21.918;2022-08-24T03:44:14;24.0;;;21.0;;
22673;SDS011;11504;43.334;21.918;2022-08-24T03:48:52;24.0;;;21.0;;
22673;SDS011;11504;43.334;21.918;2022-08-24T03:53:30;24.0;;;21.0;;
22673;SDS011;11504;43.334;21.918;2022-08-24T03:58:08;24.0;;;21.0;;
22673;SDS011;11504;43.334;21.918;2022-08-24T04:02:45;24.0;;;21.0;;
22673;SDS011;11504;43.334;21.918;2022-08-24T04:07:22;24.0;;;22.0;;
22673;SDS011;11504;43.334;21.918;2022-08-24T04:11:59;24.0;;;22.0;;
22673;SDS011;11504;43.334;21.918;2022-08-24T04:16:36;25.0;;;22.0;;
22673;SDS011;11504;43.334;21.918;2022-08-24T04:21:19;25.0;;;22.0;;
22673;SDS011;11504;43.334;21.918;2022-08-24T04:26:11;26.0;;;22.0;;
22673;SDS011;11504;43.334;21.918;2022-08-24T04:30:58;26.0;;;22.0;;
22673;SDS011;11504;43.334;21.918;2022-08-24T04:35:43;28.0;;;23.0;;
22673;SDS011;11504;43.334;21.918;2022-08-24T04:40:25;28.0;;;23.0;;
22673;SDS011;11504;43.334;21.918;2022-08-24T04:45:03;26.0;;;22.0;;
22673;SDS011;11504;43.334;21.918;2022-08-24T04:49:44;26.0;;;22.0;;
22673;SDS011;11504;43.334;21.918;2022-08-24T04:54:21;24.0;;;22.0;;
22673;SDS011;11504;43.334;21.918;2022-08-24T04:58:58;24.0;;;22.0;;
22673;SDS011;11504;43.334;21.918;2022-08-24T05:03:37;24.0;;;22.0;;
22673;SDS011;11504;43.334;21.918;2022-08-24T05:08:14;26.0;;;24.0;;
22673;SDS011;11504;43.334;21.918;2022-08-24T05:12:55;26.0;;;24.0;;
22673;SDS011;11504;43.334;21.918;2022-08-24T05:17:32;27.0;;;25.0;;
22673;SDS011;11504;43.334;21.918;2022-08-24T05:22:08;27.0;;;25.0;;
22673;SDS011;11504;43.334;21.918;2022-08-24T05:26:46;26.0;;;24.0;;
22673;SDS011;11504;43.334;21.918;2022-08-24T05:31:26;26.0;;;24.0;;
22673;SDS011;11504;43.334;21.918;2022-08-24T05:36:16;26.0;;;23.0;;
22673;SDS011;11504;43.334;21.918;2022-08-24T05:41:03;26.0;;;23.0;;
22673;SDS011;11504;43.334;21.918;2022-08-24T05:45:40;27.0;;;24.0;;
22673;SDS011;11504;43.334;21.918;2022-08-24T05:50:17;27.0;;;24.0;;
22673;SDS011;11504;43.334;21.918;2022-08-24T05:54:57;28.0;;;24.0;;
22673;SDS011;11504;43.334;21.918;2022-08-24T05:59:36;28.0;;;24.0;;
22673;SDS011;11504;43.334;21.918;2022-08-24T06:04:13;28.0;;;24.0;;
22673;SDS011;11504;43.334;21.918;2022-08-24T06:08:55;28.0;;;24.0;;
22673;SDS011;11504;43.334;21.918;2022-08-24T06:13:35;28.0;;;24.0;;
22673;SDS011;11504;43.334;21.918;2022-08-24T06:18:12;27.0;;;25.0;;
22673;SDS011;11504;43.334;21.918;2022-08-24T06:22:49;27.0;;;25.0;;
22673;SDS011;11504;43.334;21.918;2022-08-24T06:27:25;28.0;;;26.0;;
22673;SDS011;11504;43.334;21.918;2022-08-24T06:32:04;28.0;;;26.0;;
22673;SDS011;11504;43.334;21.918;2022-08-24T06:36:41;28.0;;;26.0;;
22673;SDS011;11504;43.334;21.918;2022-08-24T06:41:21;28.0;;;26.0;;
22673;SDS011;11504;43.334;21.918;2022-08-24T06:45:58;28.0;;;26.0;;
22673;SDS011;11504;43.334;21.918;2022-08-24T06:50:38;28.0;;;26.0;;
22673;SDS011;11504;43.334;21.918;2022-08-24T06:55:16;28.0;;;26.0;;
22673;SDS011;11504;43.334;21.918;2022-08-24T06:59:53;28.0;;;26.0;;
22673;SDS011;11504;43.334;21.918;2022-08-24T07:04:31;29.0;;;26.0;;
22673;SDS011;11504;43.334;21.918;2022-08-24T07:09:08;29.0;;;26.0;;
22673;SDS011;11504;43.334;21.918;2022-08-24T07:13:48;29.0;;;26.0;;
22673;SDS011;11504;43.334;21.918;2022-08-24T07:18:26;30.0;;;27.0;;
22673;SDS011;11504;43.334;21.918;2022-08-24T07:23:05;30.0;;;27.0;;
22673;SDS011;11504;43.334;21.918;2022-08-24T07:27:46;28.0;;;26.0;;
22673;SDS011;11504;43.334;21.918;2022-08-24T07:32:23;28.0;;;26.0;;
22673;SDS011;11504;43.334;21.918;2022-08-24T07:37:00;26.0;;;24.0;;
22673;SDS011;11504;43.334;21.918;2022-08-24T07:41:40;26.0;;;24.0;;
22673;SDS011;11504;43.334;21.918;2022-08-24T07:46:20;26.0;;;24.0;;
22673;SDS011;11504;43.334;21.918;2022-08-24T07:51:06;26.0;;;24.0;;
22673;SDS011;11504;43.334;21.918;2022-08-24T07:55:53;26.0;;;24.0;;
22673;SDS011;11504;43.334;21.918;2022-08-24T08:00:32;26.0;;;24.0;;
22673;SDS011;11504;43.334;21.918;2022-08-24T08:05:09;24.0;;;23.0;;
22673;SDS011;11504;43.334;21.918;2022-08-24T08:09:46;24.0;;;23.0;;
22673;SDS011;11504;43.334;21.918;2022-08-24T08:14:23;23.0;;;22.0;;
22673;SDS011;11504;43.334;21.918;2022-08-24T08:19:00;23.0;;;22.0;;
22673;SDS011;11504;43.334;21.918;2022-08-24T08:23:37;23.0;;;22.0;;
22673;SDS011;11504;43.334;21.918;2022-08-24T08:28:13;24.0;;;22.0;;
22673;SDS011;11504;43.334;21.918;2022-08-24T08:32:50;24.0;;;22.0;;
22673;SDS011;11504;43.334;21.918;2022-08-24T08:37:27;25.0;;;23.0;;
22673;SDS011;11504;43.334;21.918;2022-08-24T08:42:29;25.0;;;23.0;;
22673;SDS011;11504;43.334;21.918;2022-08-24T08:48:03;26.0;;;22.0;;
22673;SDS011;11504;43.334;21.918;2022-08-24T08:55:04;26.0;;;22.0;;
22673;SDS011;11504;43.334;21.918;2022-08-24T09:00:13;26.0;;;22.0;;
22673;SDS011;11504;43.334;21.918;2022-08-24T09:05:26;26.0;;;23.0;;
22673;SDS011;11504;43.334;21.918;2022-08-24T09:11:13;26.0;;;23.0;;
22673;SDS011;11504;43.334;21.918;2022-08-24T09:16:54;26.0;;;24.0;;
22673;SDS011;11504;43.334;21.918;2022-08-24T09:22:55;26.0;;;24.0;;
22673;SDS011;11504;43.334;21.918;2022-08-24T09:28:53;24.0;;;23.0;;
22673;SDS011;11504;43.334;21.918;2022-08-24T09:34:36;23.0;;;22.0;;
22673;SDS011;11504;43.334;21.918;2022-08-24T09:40:01;23.0;;;22.0;;
22673;SDS011;11504;43.334;21.918;2022-08-24T09:46:33;23.0;;;22.0;;
22673;SDS011;11504;43.334;21.918;2022-08-24T09:55:24;23.0;;;21.0;;
22673;SDS011;11504;43.334;21.918;2022-08-24T10:02:30;23.0;;;21.0;;
22673;SDS011;11504;43.334;21.918;2022-08-24T10:08:18;24.0;;;22.0;;
22673;SDS011;11504;43.334;21.918;2022-08-24T10:14:32;24.0;;;22.0;;
22673;SDS011;11504;43.334;21.918;2022-08-24T10:20:00;24.0;;;23.0;;
22673;SDS011;11504;43.334;21.918;2022-08-24T10:25:18;24.0;;;22.0;;
22673;SDS011;11504;43.334;21.918;2022-08-24T10:30:56;24.0;;;22.0;;
22673;SDS011;11504;43.334;21.918;2022-08-24T10:36:40;23.0;;;21.0;;
22673;SDS011;11504;43.334;21.918;2022-08-24T10:43:06;23.0;;;21.0;;
22673;SDS011;11504;43.334;21.918;2022-08-24T10:50:19;24.0;;;22.0;;
22673;SDS011;11504;43.334;21.918;2022-08-24T10:55:35;24.0;;;22.0;;
22673;SDS011;11504;43.334;21.918;2022-08-24T11:00:17;24.0;;;22.0;;
22673;SDS011;11504;43.334;21.918;2022-08-24T11:05:08;23.0;;;22.0;;
22673;SDS011;11504;43.334;21.918;2022-08-24T11:10:06;23.0;;;22.0;;
22673;SDS011;11504;43.334;21.918;2022-08-24T11:14:46;22.0;;;21.0;;
22673;SDS011;11504;43.334;21.918;2022-08-24T11:19:32;22.0;;;21.0;;
22673;SDS011;11504;43.334;21.918;2022-08-24T11:24:25;22.0;;;21.0;;
22673;SDS011;11504;43.334;21.918;2022-08-24T11:29:17;22.0;;;20.0;;
22673;SDS011;11504;43.334;21.918;2022-08-24T11:34:01;22.0;;;20.0;;
22673;SDS011;11504;43.334;21.918;2022-08-24T11:38:43;21.0;;;20.0;;
22673;SDS011;11504;43.334;21.918;2022-08-24T11:43:34;21.0;;;20.0;;
22673;SDS011;11504;43.334;21.918;2022-08-24T11:48:46;22.0;;;20.0;;
22673;SDS011;11504;43.334;21.918;2022-08-24T11:54:04;22.0;;;20.0;;
22673;SDS011;11504;43.334;21.918;2022-08-24T11:59:38;22.0;;;21.0;;
22673;SDS011;11504;43.334;21.918;2022-08-24T12:04:56;24.0;;;22.0;;
22673;SDS011;11504;43.334;21.918;2022-08-24T12:10:33;24.0;;;22.0;;
22673;SDS011;11504;43.334;21.918;2022-08-24T12:16:09;26.0;;;24.0;;
22673;SDS011;11504;43.334;21.918;2022-08-24T12:21:28;26.0;;;24.0;;
22673;SDS011;11504;43.334;21.918;2022-08-24T12:26:28;26.0;;;24.0;;
22673;SDS011;11504;43.334;21.918;2022-08-24T12:31:39;26.0;;;24.0;;
22673;SDS011;11504;43.334;21.918;2022-08-24T12:36:52;26.0;;;23.0;;
22673;SDS011;11504;43.334;21.918;2022-08-24T12:42:14;26.0;;;23.0;;
22673;SDS011;11504;43.334;21.918;2022-08-24T12:47:34;26.0;;;24.0;;
22673;SDS011;11504;43.334;21.918;2022-08-24T12:53:11;26.0;;;24.0;;
22673;SDS011;11504;43.334;21.918;2022-08-24T12:59:23;26.0;;;24.0;;
22673;SDS011;11504;43.334;21.918;2022-08-24T13:04:33;26.0;;;24.0;;
22673;SDS011;11504;43.334;21.918;2022-08-24T13:09:36;26.0;;;24.0;;
22673;SDS011;11504;43.334;21.918;2022-08-24T13:14:26;26.0;;;24.0;;
22673;SDS011;11504;43.334;21.918;2022-08-24T13:19:14;26.0;;;25.0;;
22673;SDS011;11504;43.334;21.918;2022-08-24T13:24:44;26.0;;;24.0;;
22673;SDS011;11504;43.334;21.918;2022-08-24T13:30:58;26.0;;;24.0;;
22673;SDS011;11504;43.334;21.918;2022-08-24T13:36:39;25.0;;;24.0;;
22673;SDS011;11504;43.334;21.918;2022-08-24T13:42:14;25.0;;;24.0;;
22673;SDS011;11504;43.334;21.918;2022-08-24T13:47:57;24.0;;;22.0;;
22673;SDS011;11504;43.334;21.918;2022-08-24T13:53:43;24.0;;;22.0;;
22673;SDS011;11504;43.334;21.918;2022-08-24T13:59:07;23.0;;;21.0;;
22673;SDS011;11504;43.334;21.918;2022-08-24T14:04:38;23.0;;;21.0;;
22673;SDS011;11504;43.334;21.918;2022-08-24T14:09:47;24.0;;;22.0;;
22673;SDS011;11504;43.334;21.918;2022-08-24T14:15:05;25.0;;;24.0;;
22673;SDS011;11504;43.334;21.918;2022-08-24T14:20:09;25.0;;;24.0;;
22673;SDS011;11504;43.334;21.918;2022-08-24T14:25:27;26.0;;;24.0;;
22673;SDS011;11504;43.334;21.918;2022-08-24T14:31:20;26.0;;;24.0;;
22673;SDS011;11504;43.334;21.918;2022-08-24T14:36:17;26.0;;;25.0;;
22673;SDS011;11504;43.334;21.918;2022-08-24T14:41:45;26.0;;;25.0;;
22673;SDS011;11504;43.334;21.918;2022-08-24T14:47:03;26.0;;;24.0;;
22673;SDS011;11504;43.334;21.918;2022-08-24T14:52:57;26.0;;;24.0;;
22673;SDS011;11504;43.334;21.918;2022-08-24T14:59:01;26.0;;;24.0;;
22673;SDS011;11504;43.334;21.918;2022-08-24T15:04:44;26.0;;;24.0;;
22673;SDS011;11504;43.334;21.918;2022-08-24T15:10:12;27.0;;;25.0;;
22673;SDS011;11504;43.334;21.918;2022-08-24T15:15:11;28.0;;;26.0;;
22673;SDS011;11504;43.334;21.918;2022-08-24T15:20:48;28.0;;;26.0;;
22673;SDS011;11504;43.334;21.918;2022-08-24T15:26:48;28.0;;;26.0;;
22673;SDS011;11504;43.334;21.918;2022-08-24T15:32:18;28.0;;;26.0;;
22673;SDS011;11504;43.334;21.918;2022-08-24T15:37:30;27.0;;;25.0;;
22673;SDS011;11504;43.334;21.918;2022-08-24T15:42:14;27.0;;;25.0;;
22673;SDS011;11504;43.334;21.918;2022-08-24T15:46:55;26.0;;;24.0;;
22673;SDS011;11504;43.334;21.918;2022-08-24T15:51:57;26.0;;;24.0;;
22673;SDS011;11504;43.334;21.918;2022-08-24T15:56:46;25.0;;;23.0;;
22673;SDS011;11504;43.334;21.918;2022-08-24T16:01:37;25.0;;;23.0;;
22673;SDS011;11504;43.334;21.918;2022-08-24T16:06:22;26.0;;;24.0;;
22673;SDS011;11504;43.334;21.918;2022-08-24T16:11:31;26.0;;;24.0;;
22673;SDS011;11504;43.334;21.918;2022-08-24T16:16:32;26.0;;;25.0;;
22673;SDS011;11504;43.334;21.918;2022-08-24T16:21:28;26.0;;;25.0;;
22673;SDS011;11504;43.334;21.918;2022-08-24T16:26:23;26.0;;;25.0;;
22673;SDS011;11504;43.334;21.918;2022-08-24T16:32:07;26.0;;;25.0;;
22673;SDS011;11504;43.334;21.918;2022-08-24T16:36:51;26.0;;;25.0;;
22673;SDS011;11504;43.334;21.918;2022-08-24T16:41:28;26.0;;;25.0;;
22673;SDS011;11504;43.334;21.918;2022-08-24T16:46:07;28.0;;;26.0;;
22673;SDS011;11504;43.334;21.918;2022-08-24T16:50:47;28.0;;;26.0;;
22673;SDS011;11504;43.334;21.918;2022-08-24T16:55:25;29.0;;;27.0;;
22673;SDS011;11504;43.334;21.918;2022-08-24T17:00:05;29.0;;;27.0;;
22673;SDS011;11504;43.334;21.918;2022-08-24T17:04:49;29.0;;;27.0;;
22673;SDS011;11504;43.334;21.918;2022-08-24T17:09:28;30.0;;;26.0;;
22673;SDS011;11504;43.334;21.918;2022-08-24T17:14:13;30.0;;;26.0;;
22673;SDS011;11504;43.334;21.918;2022-08-24T17:18:51;31.0;;;25.0;;
22673;SDS011;11504;43.334;21.918;2022-08-24T17:23:28;31.0;;;25.0;;
22673;SDS011;11504;43.334;21.918;2022-08-24T17:28:05;29.0;;;24.0;;
22673;SDS011;11504;43.334;21.918;2022-08-24T17:32:47;29.0;;;24.0;;
22673;SDS011;11504;43.334;21.918;2022-08-24T17:37:29;27.0;;;24.0;;
22673;SDS011;11504;43.334;21.918;2022-08-24T17:42:07;27.0;;;24.0;;
22673;SDS011;11504;43.334;21.918;2022-08-24T17:46:48;26.0;;;24.0;;
22673;SDS011;11504;43.334;21.918;2022-08-24T17:51:36;26.0;;;24.0;;
22673;SDS011;11504;43.334;21.918;2022-08-24T17:56:15;26.0;;;23.0;;
22673;SDS011;11504;43.334;21.918;2022-08-24T18:00:55;26.0;;;23.0;;
22673;SDS011;11504;43.334;21.918;2022-08-24T18:05:34;26.0;;;24.0;;
22673;SDS011;11504;43.334;21.918;2022-08-24T18:10:18;26.0;;;24.0;;
22673;SDS011;11504;43.334;21.918;2022-08-24T18:15:07;27.0;;;25.0;;
22673;SDS011;11504;43.334;21.918;2022-08-24T18:19:47;27.0;;;25.0;;
22673;SDS011;11504;43.334;21.918;2022-08-24T18:24:30;27.0;;;25.0;;
22673;SDS011;11504;43.334;21.918;2022-08-24T18:29:14;26.0;;;25.0;;
22673;SDS011;11504;43.334;21.918;2022-08-24T18:33:56;26.0;;;25.0;;
22673;SDS011;11504;43.334;21.918;2022-08-24T18:38:33;26.0;;;25.0;;
22673;SDS011;11504;43.334;21.918;2022-08-24T18:43:13;26.0;;;25.0;;
22673;SDS011;11504;43.334;21.918;2022-08-24T18:47:59;28.0;;;26.0;;
22673;SDS011;11504;43.334;21.918;2022-08-24T18:52:39;28.0;;;26.0;;
22673;SDS011;11504;43.334;21.918;2022-08-24T18:57:17;30.0;;;28.0;;
22673;SDS011;11504;43.334;21.918;2022-08-24T19:01:56;30.0;;;28.0;;
22673;SDS011;11504;43.334;21.918;2022-08-24T19:06:40;31.0;;;28.0;;
22673;SDS011;11504;43.334;21.918;2022-08-24T19:11:21;31.0;;;28.0;;
22673;SDS011;11504;43.334;21.918;2022-08-24T19:15:59;32.0;;;28.0;;
22673;SDS011;11504;43.334;21.918;2022-08-24T19:20:38;32.0;;;28.0;;
22673;SDS011;11504;43.334;21.918;2022-08-24T19:25:26;33.0;;;30.0;;
22673;SDS011;11504;43.334;21.918;2022-08-24T19:30:04;33.0;;;30.0;;
22673;SDS011;11504;43.334;21.918;2022-08-24T19:34:44;33.0;;;30.0;;
22673;SDS011;11504;43.334;21.918;2022-08-24T19:39:20;34.0;;;31.0;;
22673;SDS011;11504;43.334;21.918;2022-08-24T19:43:57;34.0;;;31.0;;
22673;SDS011;11504;43.334;21.918;2022-08-24T19:48:36;34.0;;;30.0;;
22673;SDS011;11504;43.334;21.918;2022-08-24T19:53:14;34.0;;;30.0;;
22673;SDS011;11504;43.334;21.918;2022-08-24T19:57:52;33.0;;;30.0;;
22673;SDS011;11504;43.334;21.918;2022-08-24T20:03:10;33.0;;;30.0;;
22673;SDS011;11504;43.334;21.918;2022-08-24T20:07:47;34.0;;;32.0;;
22673;SDS011;11504;43.334;21.918;2022-08-24T20:12:26;34.0;;;32.0;;
22673;SDS011;11504;43.334;21.918;2022-08-24T20:17:04;35.0;;;34.0;;
22673;SDS011;11504;43.334;21.918;2022-08-24T20:21:41;35.0;;;34.0;;
22673;SDS011;11504;43.334;21.918;2022-08-24T20:26:19;34.0;;;32.0;;
22673;SDS011;11504;43.334;21.918;2022-08-24T20:30:59;34.0;;;32.0;;
22673;SDS011;11504;43.334;21.918;2022-08-24T20:35:38;33.0;;;30.0;;
22673;SDS011;11504;43.334;21.918;2022-08-24T20:40:19;33.0;;;30.0;;
22673;SDS011;11504;43.334;21.918;2022-08-24T20:45:02;33.0;;;30.0;;
22673;SDS011;11504;43.334;21.918;2022-08-24T20:49:46;34.0;;;30.0;;
22673;SDS011;11504;43.334;21.918;2022-08-24T20:54:26;34.0;;;30.0;;
22673;SDS011;11504;43.334;21.918;2022-08-24T20:59:03;35.0;;;31.0;;
22673;SDS011;11504;43.334;21.918;2022-08-24T21:03:49;35.0;;;31.0;;
22673;SDS011;11504;43.334;21.918;2022-08-24T21:08:25;34.0;;;32.0;;
22673;SDS011;11504;43.334;21.918;2022-08-24T21:13:03;34.0;;;32.0;;
22673;SDS011;11504;43.334;21.918;2022-08-24T21:17:40;33.0;;;32.0;;
22673;SDS011;11504;43.334;21.918;2022-08-24T21:22:20;33.0;;;32.0;;
22673;SDS011;11504;43.334;21.918;2022-08-24T21:26:57;34.0;;;32.0;;
22673;SDS011;11504;43.334;21.918;2022-08-24T21:31:35;34.0;;;32.0;;
22673;SDS011;11504;43.334;21.918;2022-08-24T21:36:14;35.0;;;31.0;;
22673;SDS011;11504;43.334;21.918;2022-08-24T21:40:51;35.0;;;31.0;;
22673;SDS011;11504;43.334;21.918;2022-08-24T21:45:28;36.0;;;32.0;;
22673;SDS011;11504;43.334;21.918;2022-08-24T21:50:05;36.0;;;32.0;;
22673;SDS011;11504;43.334;21.918;2022-08-24T21:54:48;36.0;;;32.0;;
22673;SDS011;11504;43.334;21.918;2022-08-24T21:59:25;37.0;;;34.0;;
22673;SDS011;11504;43.334;21.918;2022-08-24T22:04:02;37.0;;;34.0;;
22673;SDS011;11504;43.334;21.918;2022-08-24T22:08:41;38.0;;;34.0;;
22673;SDS011;11504;43.334;21.918;2022-08-24T22:13:18;38.0;;;34.0;;
22673;SDS011;11504;43.334;21.918;2022-08-24T22:17:55;39.0;;;35.0;;
22673;SDS011;11504;43.334;21.918;2022-08-24T22:22:31;39.0;;;35.0;;
22673;SDS011;11504;43.334;21.918;2022-08-24T22:27:08;37.0;;;34.0;;
22673;SDS011;11504;43.334;21.918;2022-08-24T22:31:45;37.0;;;34.0;;
22673;SDS011;11504;43.334;21.918;2022-08-24T22:36:23;35.0;;;33.0;;
22673;SDS011;11504;43.334;21.918;2022-08-24T22:41:05;35.0;;;33.0;;
22673;SDS011;11504;43.334;21.918;2022-08-24T22:45:47;37.0;;;34.0;;
22673;SDS011;11504;43.334;21.918;2022-08-24T22:50:26;37.0;;;34.0;;
22673;SDS011;11504;43.334;21.918;2022-08-24T22:55:05;37.0;;;34.0;;
22673;SDS011;11504;43.334;21.918;2022-08-24T22:59:46;39.0;;;34.0;;
22673;SDS011;11504;43.334;21.918;2022-08-24T23:04:26;39.0;;;34.0;;
22673;SDS011;11504;43.334;21.918;2022-08-24T23:09:24;37.0;;;32.0;;
22673;SDS011;11504;43.334;21.918;2022-08-24T23:14:05;37.0;;;32.0;;
22673;SDS011;11504;43.334;21.918;2022-08-24T23:18:50;35.0;;;31.0;;
22673;SDS011;11504;43.334;21.918;2022-08-24T23:23:30;35.0;;;31.0;;
22673;SDS011;11504;43.334;21.918;2022-08-24T23:28:07;34.0;;;30.0;;
22673;SDS011;11504;43.334;21.918;2022-08-24T23:32:45;34.0;;;30.0;;
22673;SDS011;11504;43.334;21.918;2022-08-24T23:37:22;34.0;;;29.0;;
22673;SDS011;11504;43.334;21.918;2022-08-24T23:42:00;34.0;;;29.0;;
22673;SDS011;11504;43.334;21.918;2022-08-24T23:46:39;32.0;;;29.0;;
22673;SDS011;11504;43.334;21.918;2022-08-24T23:51:19;32.0;;;29.0;;
22673;SDS011;11504;43.334;21.918;2022-08-24T23:56:04;31.0;;;29.0;;
